sensor_id;sensor_type;location;lat;lon;timestamp;P1;durP1;ratioP1;P2;durP2;ratioP2
29500;SDS011;16450;50.288;10.966;2023-11-21T00:01:51;5.20;;;3.10;;
29500;SDS011;16450;50.288;10.966;2023-11-21T00:04:53;6.50;;;3.40;;
29500;SDS011;16450;50.288;10.966;2023-11-21T00:07:56;5.80;;;2.90;;
29500;SDS011;16450;50.288;10.966;2023-11-21T00:10:58;8.87;;;3.30;;
29500;SDS011;16450;50.288;10.966;2023-11-21T00:14:01;7.83;;;3.23;;
29500;SDS011;16450;50.288;10.966;2023-11-21T00:17:04;4.80;;;2.83;;
29500;SDS011;16450;50.288;10.966;2023-11-21T00:20:06;5.73;;;2.83;;
29500;SDS011;16450;50.288;10.966;2023-11-21T00:23:09;3.70;;;2.90;;
29500;SDS011;16450;50.288;10.966;2023-11-21T00:26:10;5.93;;;3.17;;
29500;SDS011;16450;50.288;10.966;2023-11-21T00:29:12;4.90;;;2.97;;
29500;SDS011;16450;50.288;10.966;2023-11-21T00:32:14;5.07;;;2.97;;
29500;SDS011;16450;50.288;10.966;2023-11-21T00:35:16;7.80;;;3.33;;
29500;SDS011;16450;50.288;10.966;2023-11-21T00:38:18;5.00;;;2.90;;
29500;SDS011;16450;50.288;10.966;2023-11-21T00:41:21;8.70;;;3.47;;
29500;SDS011;16450;50.288;10.966;2023-11-21T00:44:23;8.50;;;3.33;;
29500;SDS011;16450;50.288;10.966;2023-11-21T00:47:25;5.07;;;3.30;;
29500;SDS011;16450;50.288;10.966;2023-11-21T00:50:27;5.20;;;3.40;;
29500;SDS011;16450;50.288;10.966;2023-11-21T00:53:29;6.03;;;3.20;;
29500;SDS011;16450;50.288;10.966;2023-11-21T00:56:30;5.97;;;3.10;;
29500;SDS011;16450;50.288;10.966;2023-11-21T00:59:33;4.77;;;3.20;;
29500;SDS011;16450;50.288;10.966;2023-11-21T01:02:35;9.10;;;3.60;;
29500;SDS011;16450;50.288;10.966;2023-11-21T01:05:37;5.67;;;3.33;;
29500;SDS011;16450;50.288;10.966;2023-11-21T01:08:39;7.87;;;3.40;;
29500;SDS011;16450;50.288;10.966;2023-11-21T01:11:41;6.90;;;3.83;;
29500;SDS011;16450;50.288;10.966;2023-11-21T01:14:42;5.37;;;3.40;;
29500;SDS011;16450;50.288;10.966;2023-11-21T01:17:44;6.23;;;3.70;;
29500;SDS011;16450;50.288;10.966;2023-11-21T01:20:46;7.60;;;3.70;;
29500;SDS011;16450;50.288;10.966;2023-11-21T01:23:48;7.93;;;3.93;;
29500;SDS011;16450;50.288;10.966;2023-11-21T01:26:50;5.50;;;4.00;;
29500;SDS011;16450;50.288;10.966;2023-11-21T01:29:53;9.97;;;4.43;;
29500;SDS011;16450;50.288;10.966;2023-11-21T01:32:55;6.30;;;4.07;;
29500;SDS011;16450;50.288;10.966;2023-11-21T01:35:58;8.07;;;4.50;;
29500;SDS011;16450;50.288;10.966;2023-11-21T01:39:00;10.40;;;4.40;;
29500;SDS011;16450;50.288;10.966;2023-11-21T01:42:02;8.27;;;4.67;;
29500;SDS011;16450;50.288;10.966;2023-11-21T01:45:04;8.43;;;5.00;;
29500;SDS011;16450;50.288;10.966;2023-11-21T01:48:07;10.87;;;5.07;;
29500;SDS011;16450;50.288;10.966;2023-11-21T01:51:10;8.83;;;4.80;;
29500;SDS011;16450;50.288;10.966;2023-11-21T01:54:11;8.37;;;4.57;;
29500;SDS011;16450;50.288;10.966;2023-11-21T01:57:19;9.20;;;4.67;;
29500;SDS011;16450;50.288;10.966;2023-11-21T02:00:21;8.87;;;4.70;;
29500;SDS011;16450;50.288;10.966;2023-11-21T02:03:25;11.20;;;4.63;;
29500;SDS011;16450;50.288;10.966;2023-11-21T02:06:27;8.23;;;4.30;;
29500;SDS011;16450;50.288;10.966;2023-11-21T02:09:32;10.23;;;4.43;;
29500;SDS011;16450;50.288;10.966;2023-11-21T02:12:35;8.93;;;4.73;;
29500;SDS011;16450;50.288;10.966;2023-11-21T02:15:38;8.97;;;4.90;;
29500;SDS011;16450;50.288;10.966;2023-11-21T02:18:40;10.37;;;4.53;;
29500;SDS011;16450;50.288;10.966;2023-11-21T02:21:43;9.97;;;4.53;;
29500;SDS011;16450;50.288;10.966;2023-11-21T02:24:46;7.73;;;4.53;;
29500;SDS011;16450;50.288;10.966;2023-11-21T02:27:48;9.70;;;4.87;;
29500;SDS011;16450;50.288;10.966;2023-11-21T02:30:50;10.47;;;4.47;;
29500;SDS011;16450;50.288;10.966;2023-11-21T02:33:56;7.50;;;4.63;;
29500;SDS011;16450;50.288;10.966;2023-11-21T02:36:58;7.33;;;4.37;;
29500;SDS011;16450;50.288;10.966;2023-11-21T02:40:01;7.47;;;4.53;;
29500;SDS011;16450;50.288;10.966;2023-11-21T02:43:07;9.53;;;4.50;;
29500;SDS011;16450;50.288;10.966;2023-11-21T02:46:10;7.50;;;4.57;;
29500;SDS011;16450;50.288;10.966;2023-11-21T02:49:12;9.57;;;5.37;;
29500;SDS011;16450;50.288;10.966;2023-11-21T02:52:14;10.37;;;5.10;;
29500;SDS011;16450;50.288;10.966;2023-11-21T02:55:16;8.47;;;4.63;;
29500;SDS011;16450;50.288;10.966;2023-11-21T02:58:18;10.27;;;5.30;;
29500;SDS011;16450;50.288;10.966;2023-11-21T03:01:20;9.13;;;5.10;;
29500;SDS011;16450;50.288;10.966;2023-11-21T03:04:22;10.47;;;5.07;;
29500;SDS011;16450;50.288;10.966;2023-11-21T03:07:24;10.90;;;5.97;;
29500;SDS011;16450;50.288;10.966;2023-11-21T03:10:26;8.73;;;5.70;;
29500;SDS011;16450;50.288;10.966;2023-11-21T03:13:28;10.77;;;5.00;;
29500;SDS011;16450;50.288;10.966;2023-11-21T03:16:33;6.47;;;4.37;;
29500;SDS011;16450;50.288;10.966;2023-11-21T03:19:35;9.00;;;4.70;;
29500;SDS011;16450;50.288;10.966;2023-11-21T03:22:37;8.33;;;4.43;;
29500;SDS011;16450;50.288;10.966;2023-11-21T03:25:40;12.20;;;5.03;;
29500;SDS011;16450;50.288;10.966;2023-11-21T03:28:41;8.30;;;4.63;;
29500;SDS011;16450;50.288;10.966;2023-11-21T03:31:43;9.80;;;4.73;;
29500;SDS011;16450;50.288;10.966;2023-11-21T03:34:55;9.87;;;4.60;;
29500;SDS011;16450;50.288;10.966;2023-11-21T03:38:00;11.40;;;5.50;;
29500;SDS011;16450;50.288;10.966;2023-11-21T03:41:01;10.53;;;5.03;;
29500;SDS011;16450;50.288;10.966;2023-11-21T03:44:04;11.63;;;5.23;;
29500;SDS011;16450;50.288;10.966;2023-11-21T03:47:06;8.10;;;4.90;;
29500;SDS011;16450;50.288;10.966;2023-11-21T03:50:08;10.30;;;5.30;;
29500;SDS011;16450;50.288;10.966;2023-11-21T03:53:10;9.40;;;5.17;;
29500;SDS011;16450;50.288;10.966;2023-11-21T03:56:13;9.33;;;5.40;;
29500;SDS011;16450;50.288;10.966;2023-11-21T03:59:15;15.80;;;5.70;;
29500;SDS011;16450;50.288;10.966;2023-11-21T04:02:17;12.47;;;6.20;;
29500;SDS011;16450;50.288;10.966;2023-11-21T04:05:20;8.43;;;5.70;;
29500;SDS011;16450;50.288;10.966;2023-11-21T04:08:23;10.60;;;4.93;;
29500;SDS011;16450;50.288;10.966;2023-11-21T04:11:26;8.80;;;5.17;;
29500;SDS011;16450;50.288;10.966;2023-11-21T04:14:31;7.50;;;5.10;;
29500;SDS011;16450;50.288;10.966;2023-11-21T04:17:33;7.97;;;5.20;;
29500;SDS011;16450;50.288;10.966;2023-11-21T04:20:35;8.63;;;5.00;;
29500;SDS011;16450;50.288;10.966;2023-11-21T04:23:37;12.33;;;5.30;;
29500;SDS011;16450;50.288;10.966;2023-11-21T04:26:41;7.67;;;4.90;;
29500;SDS011;16450;50.288;10.966;2023-11-21T04:29:43;8.43;;;5.40;;
29500;SDS011;16450;50.288;10.966;2023-11-21T04:32:45;13.47;;;5.70;;
29500;SDS011;16450;50.288;10.966;2023-11-21T04:35:47;8.90;;;5.17;;
29500;SDS011;16450;50.288;10.966;2023-11-21T04:38:49;11.67;;;5.40;;
29500;SDS011;16450;50.288;10.966;2023-11-21T04:41:51;8.97;;;5.33;;
29500;SDS011;16450;50.288;10.966;2023-11-21T04:44:53;9.80;;;5.33;;
29500;SDS011;16450;50.288;10.966;2023-11-21T04:47:55;13.17;;;5.30;;
29500;SDS011;16450;50.288;10.966;2023-11-21T04:50:58;8.60;;;5.07;;
29500;SDS011;16450;50.288;10.966;2023-11-21T04:54:00;12.50;;;5.17;;
29500;SDS011;16450;50.288;10.966;2023-11-21T04:57:02;10.37;;;5.40;;
29500;SDS011;16450;50.288;10.966;2023-11-21T05:00:04;7.03;;;4.77;;
29500;SDS011;16450;50.288;10.966;2023-11-21T05:03:07;7.97;;;5.50;;
29500;SDS011;16450;50.288;10.966;2023-11-21T05:06:09;10.47;;;5.77;;
29500;SDS011;16450;50.288;10.966;2023-11-21T05:09:11;8.70;;;5.53;;
29500;SDS011;16450;50.288;10.966;2023-11-21T05:12:13;10.40;;;5.27;;
29500;SDS011;16450;50.288;10.966;2023-11-21T05:15:16;8.37;;;5.10;;
29500;SDS011;16450;50.288;10.966;2023-11-21T05:18:18;10.60;;;5.50;;
29500;SDS011;16450;50.288;10.966;2023-11-21T05:21:20;8.63;;;5.43;;
29500;SDS011;16450;50.288;10.966;2023-11-21T05:24:22;7.33;;;5.10;;
29500;SDS011;16450;50.288;10.966;2023-11-21T05:27:24;7.50;;;5.20;;
29500;SDS011;16450;50.288;10.966;2023-11-21T05:30:26;10.70;;;5.37;;
29500;SDS011;16450;50.288;10.966;2023-11-21T05:33:28;9.67;;;5.30;;
29500;SDS011;16450;50.288;10.966;2023-11-21T05:36:29;8.70;;;5.50;;
29500;SDS011;16450;50.288;10.966;2023-11-21T05:39:32;8.63;;;5.77;;
29500;SDS011;16450;50.288;10.966;2023-11-21T05:42:34;10.30;;;5.57;;
29500;SDS011;16450;50.288;10.966;2023-11-21T05:45:40;16.50;;;7.03;;
29500;SDS011;16450;50.288;10.966;2023-11-21T05:48:42;14.27;;;6.33;;
29500;SDS011;16450;50.288;10.966;2023-11-21T05:51:44;12.00;;;7.03;;
29500;SDS011;16450;50.288;10.966;2023-11-21T05:54:46;12.63;;;5.97;;
29500;SDS011;16450;50.288;10.966;2023-11-21T05:57:49;9.57;;;6.57;;
29500;SDS011;16450;50.288;10.966;2023-11-21T06:00:51;15.23;;;7.33;;
29500;SDS011;16450;50.288;10.966;2023-11-21T06:03:53;13.80;;;7.27;;
29500;SDS011;16450;50.288;10.966;2023-11-21T06:06:56;11.10;;;7.07;;
29500;SDS011;16450;50.288;10.966;2023-11-21T06:09:58;16.77;;;7.50;;
29500;SDS011;16450;50.288;10.966;2023-11-21T06:13:00;14.00;;;7.10;;
29500;SDS011;16450;50.288;10.966;2023-11-21T06:16:05;13.43;;;8.00;;
29500;SDS011;16450;50.288;10.966;2023-11-21T06:19:07;18.27;;;8.07;;
29500;SDS011;16450;50.288;10.966;2023-11-21T06:22:09;14.47;;;8.03;;
29500;SDS011;16450;50.288;10.966;2023-11-21T06:25:12;13.07;;;6.80;;
29500;SDS011;16450;50.288;10.966;2023-11-21T06:28:14;12.67;;;7.30;;
29500;SDS011;16450;50.288;10.966;2023-11-21T06:31:19;14.93;;;7.40;;
29500;SDS011;16450;50.288;10.966;2023-11-21T06:34:23;12.60;;;7.17;;
29500;SDS011;16450;50.288;10.966;2023-11-21T06:37:28;14.00;;;7.50;;
29500;SDS011;16450;50.288;10.966;2023-11-21T06:40:30;19.23;;;8.27;;
29500;SDS011;16450;50.288;10.966;2023-11-21T06:43:35;11.53;;;7.27;;
29500;SDS011;16450;50.288;10.966;2023-11-21T06:46:37;12.53;;;7.37;;
29500;SDS011;16450;50.288;10.966;2023-11-21T06:49:43;12.27;;;7.40;;
29500;SDS011;16450;50.288;10.966;2023-11-21T06:52:45;12.93;;;7.43;;
29500;SDS011;16450;50.288;10.966;2023-11-21T06:55:48;13.00;;;7.30;;
29500;SDS011;16450;50.288;10.966;2023-11-21T06:58:50;14.17;;;7.87;;
29500;SDS011;16450;50.288;10.966;2023-11-21T07:01:56;16.73;;;7.97;;
29500;SDS011;16450;50.288;10.966;2023-11-21T07:05:00;15.60;;;9.93;;
29500;SDS011;16450;50.288;10.966;2023-11-21T07:08:06;19.73;;;9.33;;
29500;SDS011;16450;50.288;10.966;2023-11-21T07:11:09;15.93;;;8.53;;
29500;SDS011;16450;50.288;10.966;2023-11-21T07:14:12;13.43;;;7.67;;
29500;SDS011;16450;50.288;10.966;2023-11-21T07:17:13;13.27;;;7.53;;
29500;SDS011;16450;50.288;10.966;2023-11-21T07:20:15;12.63;;;7.03;;
29500;SDS011;16450;50.288;10.966;2023-11-21T07:23:18;13.73;;;6.87;;
29500;SDS011;16450;50.288;10.966;2023-11-21T07:26:20;12.03;;;6.60;;
29500;SDS011;16450;50.288;10.966;2023-11-21T07:29:23;13.63;;;7.10;;
29500;SDS011;16450;50.288;10.966;2023-11-21T07:32:26;19.53;;;9.73;;
29500;SDS011;16450;50.288;10.966;2023-11-21T07:35:28;21.20;;;11.57;;
29500;SDS011;16450;50.288;10.966;2023-11-21T07:38:30;22.60;;;12.47;;
29500;SDS011;16450;50.288;10.966;2023-11-21T07:41:32;20.17;;;11.90;;
29500;SDS011;16450;50.288;10.966;2023-11-21T07:44:34;19.37;;;10.50;;
29500;SDS011;16450;50.288;10.966;2023-11-21T07:47:36;20.67;;;10.00;;
29500;SDS011;16450;50.288;10.966;2023-11-21T07:50:41;16.70;;;9.27;;
29500;SDS011;16450;50.288;10.966;2023-11-21T07:53:43;19.10;;;10.73;;
29500;SDS011;16450;50.288;10.966;2023-11-21T07:56:45;16.30;;;8.93;;
29500;SDS011;16450;50.288;10.966;2023-11-21T07:59:47;16.13;;;8.47;;
29500;SDS011;16450;50.288;10.966;2023-11-21T08:02:49;16.83;;;8.67;;
29500;SDS011;16450;50.288;10.966;2023-11-21T08:05:52;11.77;;;7.53;;
29500;SDS011;16450;50.288;10.966;2023-11-21T08:08:54;14.57;;;8.00;;
29500;SDS011;16450;50.288;10.966;2023-11-21T08:11:56;11.37;;;7.37;;
29500;SDS011;16450;50.288;10.966;2023-11-21T08:14:58;11.33;;;6.50;;
29500;SDS011;16450;50.288;10.966;2023-11-21T08:18:00;13.40;;;7.37;;
29500;SDS011;16450;50.288;10.966;2023-11-21T08:21:02;11.80;;;7.00;;
29500;SDS011;16450;50.288;10.966;2023-11-21T08:24:06;12.10;;;7.23;;
29500;SDS011;16450;50.288;10.966;2023-11-21T08:27:12;14.47;;;8.17;;
29500;SDS011;16450;50.288;10.966;2023-11-21T08:30:17;13.70;;;8.00;;
29500;SDS011;16450;50.288;10.966;2023-11-21T08:33:21;14.80;;;8.23;;
29500;SDS011;16450;50.288;10.966;2023-11-21T08:36:23;13.30;;;8.07;;
29500;SDS011;16450;50.288;10.966;2023-11-21T08:39:25;12.40;;;7.67;;
29500;SDS011;16450;50.288;10.966;2023-11-21T08:42:28;14.13;;;8.53;;
29500;SDS011;16450;50.288;10.966;2023-11-21T08:45:31;13.70;;;8.03;;
29500;SDS011;16450;50.288;10.966;2023-11-21T08:48:36;13.00;;;8.37;;
29500;SDS011;16450;50.288;10.966;2023-11-21T08:51:38;13.17;;;8.07;;
29500;SDS011;16450;50.288;10.966;2023-11-21T08:54:40;13.00;;;7.53;;
29500;SDS011;16450;50.288;10.966;2023-11-21T08:57:45;12.67;;;7.33;;
29500;SDS011;16450;50.288;10.966;2023-11-21T09:00:50;13.90;;;7.13;;
29500;SDS011;16450;50.288;10.966;2023-11-21T09:03:52;13.13;;;7.53;;
29500;SDS011;16450;50.288;10.966;2023-11-21T09:06:54;15.17;;;7.53;;
29500;SDS011;16450;50.288;10.966;2023-11-21T09:09:56;15.00;;;8.27;;
29500;SDS011;16450;50.288;10.966;2023-11-21T09:12:59;12.33;;;7.37;;
29500;SDS011;16450;50.288;10.966;2023-11-21T09:16:01;13.27;;;7.63;;
29500;SDS011;16450;50.288;10.966;2023-11-21T09:19:03;13.77;;;7.40;;
29500;SDS011;16450;50.288;10.966;2023-11-21T09:22:06;14.13;;;7.70;;
29500;SDS011;16450;50.288;10.966;2023-11-21T09:25:09;12.10;;;7.00;;
29500;SDS011;16450;50.288;10.966;2023-11-21T09:28:11;12.40;;;6.60;;
29500;SDS011;16450;50.288;10.966;2023-11-21T09:31:14;10.67;;;6.77;;
29500;SDS011;16450;50.288;10.966;2023-11-21T09:34:17;11.00;;;6.50;;
29500;SDS011;16450;50.288;10.966;2023-11-21T09:37:20;9.57;;;6.07;;
29500;SDS011;16450;50.288;10.966;2023-11-21T09:40:21;9.00;;;5.53;;
29500;SDS011;16450;50.288;10.966;2023-11-21T09:43:24;8.73;;;5.67;;
29500;SDS011;16450;50.288;10.966;2023-11-21T09:46:28;8.23;;;5.50;;
29500;SDS011;16450;50.288;10.966;2023-11-21T09:49:32;7.93;;;4.80;;
29500;SDS011;16450;50.288;10.966;2023-11-21T09:53:19;7.13;;;4.60;;
29500;SDS011;16450;50.288;10.966;2023-11-21T09:56:16;7.77;;;4.33;;
29500;SDS011;16450;50.288;10.966;2023-11-21T09:59:24;5.90;;;3.83;;
29500;SDS011;16450;50.288;10.966;2023-11-21T10:02:32;6.33;;;3.90;;
29500;SDS011;16450;50.288;10.966;2023-11-21T10:05:38;6.53;;;3.20;;
29500;SDS011;16450;50.288;10.966;2023-11-21T10:08:40;5.77;;;3.40;;
29500;SDS011;16450;50.288;10.966;2023-11-21T10:11:53;8.10;;;4.37;;
29500;SDS011;16450;50.288;10.966;2023-11-21T10:14:58;7.70;;;4.50;;
29500;SDS011;16450;50.288;10.966;2023-11-21T10:18:02;6.20;;;3.60;;
29500;SDS011;16450;50.288;10.966;2023-11-21T10:21:05;7.83;;;3.80;;
29500;SDS011;16450;50.288;10.966;2023-11-21T10:24:08;6.37;;;3.87;;
29500;SDS011;16450;50.288;10.966;2023-11-21T10:27:12;6.47;;;3.33;;
29500;SDS011;16450;50.288;10.966;2023-11-21T10:30:14;7.37;;;3.77;;
29500;SDS011;16450;50.288;10.966;2023-11-21T10:33:17;9.23;;;3.50;;
29500;SDS011;16450;50.288;10.966;2023-11-21T10:36:30;5.57;;;3.40;;
29500;SDS011;16450;50.288;10.966;2023-11-21T10:39:32;7.87;;;3.50;;
29500;SDS011;16450;50.288;10.966;2023-11-21T10:42:35;15.60;;;4.20;;
29500;SDS011;16450;50.288;10.966;2023-11-21T10:45:37;7.50;;;4.10;;
29500;SDS011;16450;50.288;10.966;2023-11-21T10:48:43;6.80;;;4.20;;
29500;SDS011;16450;50.288;10.966;2023-11-21T10:51:45;8.70;;;4.23;;
29500;SDS011;16450;50.288;10.966;2023-11-21T10:54:50;8.70;;;4.33;;
29500;SDS011;16450;50.288;10.966;2023-11-21T10:57:52;8.57;;;4.53;;
29500;SDS011;16450;50.288;10.966;2023-11-21T11:00:55;8.70;;;4.30;;
29500;SDS011;16450;50.288;10.966;2023-11-21T11:03:58;6.50;;;3.60;;
29500;SDS011;16450;50.288;10.966;2023-11-21T11:07:02;8.30;;;3.47;;
29500;SDS011;16450;50.288;10.966;2023-11-21T11:10:07;6.90;;;3.83;;
29500;SDS011;16450;50.288;10.966;2023-11-21T11:13:15;6.33;;;3.40;;
29500;SDS011;16450;50.288;10.966;2023-11-21T11:16:18;8.10;;;3.77;;
29500;SDS011;16450;50.288;10.966;2023-11-21T11:19:21;6.37;;;3.47;;
29500;SDS011;16450;50.288;10.966;2023-11-21T11:29:13;8.07;;;3.53;;
29500;SDS011;16450;50.288;10.966;2023-11-21T11:32:43;5.23;;;3.13;;
29500;SDS011;16450;50.288;10.966;2023-11-21T11:43:05;5.57;;;3.30;;
29500;SDS011;16450;50.288;10.966;2023-11-21T11:46:08;7.13;;;3.60;;
29500;SDS011;16450;50.288;10.966;2023-11-21T11:49:23;8.00;;;3.27;;
29500;SDS011;16450;50.288;10.966;2023-11-21T11:55:37;9.33;;;3.30;;
29500;SDS011;16450;50.288;10.966;2023-11-21T11:58:40;8.30;;;3.27;;
29500;SDS011;16450;50.288;10.966;2023-11-21T12:01:44;7.23;;;3.43;;
29500;SDS011;16450;50.288;10.966;2023-11-21T12:04:47;7.90;;;3.07;;
29500;SDS011;16450;50.288;10.966;2023-11-21T12:07:53;10.67;;;3.30;;
29500;SDS011;16450;50.288;10.966;2023-11-21T12:10:58;7.10;;;3.03;;
29500;SDS011;16450;50.288;10.966;2023-11-21T12:14:00;9.37;;;3.53;;
29500;SDS011;16450;50.288;10.966;2023-11-21T12:17:03;11.33;;;3.40;;
29500;SDS011;16450;50.288;10.966;2023-11-21T12:20:06;9.80;;;3.30;;
29500;SDS011;16450;50.288;10.966;2023-11-21T12:23:15;8.50;;;3.33;;
29500;SDS011;16450;50.288;10.966;2023-11-21T12:26:18;9.13;;;4.10;;
29500;SDS011;16450;50.288;10.966;2023-11-21T12:29:20;9.47;;;4.07;;
29500;SDS011;16450;50.288;10.966;2023-11-21T12:32:21;11.00;;;4.27;;
29500;SDS011;16450;50.288;10.966;2023-11-21T12:35:24;9.80;;;4.03;;
29500;SDS011;16450;50.288;10.966;2023-11-21T12:38:34;7.90;;;3.87;;
29500;SDS011;16450;50.288;10.966;2023-11-21T12:41:39;8.07;;;4.07;;
29500;SDS011;16450;50.288;10.966;2023-11-21T12:44:41;8.17;;;4.03;;
29500;SDS011;16450;50.288;10.966;2023-11-21T12:47:48;9.43;;;3.97;;
29500;SDS011;16450;50.288;10.966;2023-11-21T12:51:05;8.27;;;4.30;;
29500;SDS011;16450;50.288;10.966;2023-11-21T12:54:07;11.10;;;4.80;;
29500;SDS011;16450;50.288;10.966;2023-11-21T12:57:11;9.80;;;4.33;;
29500;SDS011;16450;50.288;10.966;2023-11-21T13:00:12;10.17;;;4.73;;
29500;SDS011;16450;50.288;10.966;2023-11-21T13:03:25;13.47;;;4.97;;
29500;SDS011;16450;50.288;10.966;2023-11-21T13:06:28;12.53;;;6.03;;
29500;SDS011;16450;50.288;10.966;2023-11-21T13:09:35;15.27;;;7.13;;
29500;SDS011;16450;50.288;10.966;2023-11-21T13:12:36;12.17;;;6.30;;
29500;SDS011;16450;50.288;10.966;2023-11-21T13:15:39;15.33;;;6.27;;
29500;SDS011;16450;50.288;10.966;2023-11-21T13:18:44;9.47;;;5.00;;
29500;SDS011;16450;50.288;10.966;2023-11-21T13:21:46;14.93;;;5.50;;
29500;SDS011;16450;50.288;10.966;2023-11-21T13:24:47;7.07;;;4.30;;
29500;SDS011;16450;50.288;10.966;2023-11-21T13:27:49;13.60;;;4.40;;
29500;SDS011;16450;50.288;10.966;2023-11-21T13:30:52;8.13;;;4.07;;
29500;SDS011;16450;50.288;10.966;2023-11-21T13:33:54;10.37;;;3.60;;
29500;SDS011;16450;50.288;10.966;2023-11-21T13:36:58;6.03;;;3.30;;
29500;SDS011;16450;50.288;10.966;2023-11-21T13:40:02;7.17;;;3.37;;
29500;SDS011;16450;50.288;10.966;2023-11-21T13:43:11;8.13;;;3.17;;
29500;SDS011;16450;50.288;10.966;2023-11-21T13:46:15;7.03;;;3.03;;
29500;SDS011;16450;50.288;10.966;2023-11-21T13:49:23;6.07;;;3.30;;
29500;SDS011;16450;50.288;10.966;2023-11-21T13:52:26;6.43;;;3.10;;
29500;SDS011;16450;50.288;10.966;2023-11-21T13:55:31;7.40;;;3.40;;
29500;SDS011;16450;50.288;10.966;2023-11-21T13:58:33;10.10;;;3.57;;
29500;SDS011;16450;50.288;10.966;2023-11-21T14:01:54;7.97;;;3.90;;
29500;SDS011;16450;50.288;10.966;2023-11-21T14:04:59;7.33;;;3.40;;
29500;SDS011;16450;50.288;10.966;2023-11-21T14:08:04;12.00;;;3.90;;
29500;SDS011;16450;50.288;10.966;2023-11-21T14:11:07;8.77;;;3.80;;
29500;SDS011;16450;50.288;10.966;2023-11-21T14:14:09;8.23;;;3.83;;
29500;SDS011;16450;50.288;10.966;2023-11-21T14:17:11;6.93;;;3.70;;
29500;SDS011;16450;50.288;10.966;2023-11-21T14:20:13;9.83;;;4.33;;
29500;SDS011;16450;50.288;10.966;2023-11-21T14:23:18;8.17;;;3.90;;
29500;SDS011;16450;50.288;10.966;2023-11-21T14:26:22;10.30;;;3.97;;
29500;SDS011;16450;50.288;10.966;2023-11-21T14:29:26;7.17;;;3.63;;
29500;SDS011;16450;50.288;10.966;2023-11-21T14:32:28;8.40;;;3.77;;
29500;SDS011;16450;50.288;10.966;2023-11-21T14:35:32;8.80;;;4.07;;
29500;SDS011;16450;50.288;10.966;2023-11-21T14:38:34;8.00;;;3.97;;
29500;SDS011;16450;50.288;10.966;2023-11-21T14:41:36;9.47;;;4.40;;
29500;SDS011;16450;50.288;10.966;2023-11-21T14:44:40;13.07;;;4.20;;
29500;SDS011;16450;50.288;10.966;2023-11-21T14:47:43;8.63;;;4.07;;
29500;SDS011;16450;50.288;10.966;2023-11-21T14:50:50;11.13;;;4.17;;
29500;SDS011;16450;50.288;10.966;2023-11-21T14:54:12;7.53;;;4.33;;
29500;SDS011;16450;50.288;10.966;2023-11-21T14:57:14;8.73;;;4.47;;
29500;SDS011;16450;50.288;10.966;2023-11-21T15:00:19;8.30;;;3.80;;
29500;SDS011;16450;50.288;10.966;2023-11-21T15:03:37;10.57;;;4.20;;
29500;SDS011;16450;50.288;10.966;2023-11-21T15:06:45;7.80;;;4.30;;
29500;SDS011;16450;50.288;10.966;2023-11-21T15:09:48;11.13;;;4.67;;
29500;SDS011;16450;50.288;10.966;2023-11-21T15:12:51;8.23;;;4.57;;
29500;SDS011;16450;50.288;10.966;2023-11-21T15:15:53;7.33;;;4.80;;
29500;SDS011;16450;50.288;10.966;2023-11-21T15:18:56;10.63;;;5.10;;
29500;SDS011;16450;50.288;10.966;2023-11-21T15:21:58;7.97;;;4.57;;
29500;SDS011;16450;50.288;10.966;2023-11-21T15:25:00;9.47;;;5.40;;
29500;SDS011;16450;50.288;10.966;2023-11-21T15:28:09;7.93;;;5.00;;
29500;SDS011;16450;50.288;10.966;2023-11-21T15:31:11;10.07;;;4.90;;
29500;SDS011;16450;50.288;10.966;2023-11-21T15:34:13;8.80;;;5.17;;
29500;SDS011;16450;50.288;10.966;2023-11-21T15:37:14;12.43;;;7.03;;
29500;SDS011;16450;50.288;10.966;2023-11-21T15:40:16;7.17;;;4.43;;
29500;SDS011;16450;50.288;10.966;2023-11-21T15:43:19;7.63;;;4.40;;
29500;SDS011;16450;50.288;10.966;2023-11-21T15:46:21;5.63;;;4.00;;
29500;SDS011;16450;50.288;10.966;2023-11-21T15:49:24;9.10;;;4.93;;
29500;SDS011;16450;50.288;10.966;2023-11-21T15:52:28;10.83;;;4.50;;
29500;SDS011;16450;50.288;10.966;2023-11-21T15:55:30;12.63;;;4.70;;
29500;SDS011;16450;50.288;10.966;2023-11-21T15:58:32;9.93;;;3.70;;
29500;SDS011;16450;50.288;10.966;2023-11-21T16:01:35;8.97;;;3.50;;
29500;SDS011;16450;50.288;10.966;2023-11-21T16:04:43;6.30;;;3.67;;
29500;SDS011;16450;50.288;10.966;2023-11-21T16:07:44;7.53;;;3.03;;
29500;SDS011;16450;50.288;10.966;2023-11-21T16:10:47;4.90;;;2.83;;
29500;SDS011;16450;50.288;10.966;2023-11-21T16:13:49;12.27;;;5.20;;
29500;SDS011;16450;50.288;10.966;2023-11-21T16:16:52;7.17;;;5.77;;
29500;SDS011;16450;50.288;10.966;2023-11-21T16:19:54;5.83;;;4.40;;
29500;SDS011;16450;50.288;10.966;2023-11-21T16:22:57;5.40;;;3.40;;
29500;SDS011;16450;50.288;10.966;2023-11-21T16:25:59;5.47;;;3.60;;
29500;SDS011;16450;50.288;10.966;2023-11-21T16:29:01;5.33;;;2.37;;
29500;SDS011;16450;50.288;10.966;2023-11-21T16:32:04;20.27;;;12.57;;
29500;SDS011;16450;50.288;10.966;2023-11-21T16:35:10;5.43;;;3.90;;
29500;SDS011;16450;50.288;10.966;2023-11-21T16:38:13;4.30;;;2.20;;
29500;SDS011;16450;50.288;10.966;2023-11-21T16:41:16;3.63;;;2.80;;
29500;SDS011;16450;50.288;10.966;2023-11-21T16:44:19;4.10;;;2.37;;
29500;SDS011;16450;50.288;10.966;2023-11-21T16:47:22;1.93;;;1.47;;
29500;SDS011;16450;50.288;10.966;2023-11-21T16:50:24;1.40;;;1.20;;
29500;SDS011;16450;50.288;10.966;2023-11-21T16:53:28;3.03;;;1.40;;
29500;SDS011;16450;50.288;10.966;2023-11-21T16:56:29;0.80;;;0.80;;
29500;SDS011;16450;50.288;10.966;2023-11-21T16:59:31;0.87;;;0.87;;
29500;SDS011;16450;50.288;10.966;2023-11-21T17:02:33;2.10;;;0.90;;
29500;SDS011;16450;50.288;10.966;2023-11-21T17:05:35;1.50;;;1.00;;
29500;SDS011;16450;50.288;10.966;2023-11-21T17:08:39;1.97;;;1.30;;
29500;SDS011;16450;50.288;10.966;2023-11-21T17:11:40;1.60;;;1.30;;
29500;SDS011;16450;50.288;10.966;2023-11-21T17:14:43;1.50;;;1.40;;
29500;SDS011;16450;50.288;10.966;2023-11-21T17:17:47;2.50;;;1.77;;
29500;SDS011;16450;50.288;10.966;2023-11-21T17:20:49;3.80;;;2.60;;
29500;SDS011;16450;50.288;10.966;2023-11-21T17:23:52;7.10;;;3.67;;
29500;SDS011;16450;50.288;10.966;2023-11-21T17:26:53;3.70;;;2.63;;
29500;SDS011;16450;50.288;10.966;2023-11-21T17:29:55;4.50;;;2.60;;
29500;SDS011;16450;50.288;10.966;2023-11-21T17:32:57;2.03;;;1.67;;
29500;SDS011;16450;50.288;10.966;2023-11-21T17:35:59;2.77;;;1.60;;
29500;SDS011;16450;50.288;10.966;2023-11-21T17:39:01;3.43;;;2.20;;
29500;SDS011;16450;50.288;10.966;2023-11-21T17:42:04;3.57;;;2.97;;
29500;SDS011;16450;50.288;10.966;2023-11-21T17:45:07;4.60;;;2.70;;
29500;SDS011;16450;50.288;10.966;2023-11-21T17:48:10;4.00;;;2.60;;
29500;SDS011;16450;50.288;10.966;2023-11-21T17:51:12;3.50;;;2.20;;
29500;SDS011;16450;50.288;10.966;2023-11-21T17:54:14;4.80;;;2.43;;
29500;SDS011;16450;50.288;10.966;2023-11-21T17:57:16;2.93;;;2.17;;
29500;SDS011;16450;50.288;10.966;2023-11-21T18:00:18;3.33;;;2.30;;
29500;SDS011;16450;50.288;10.966;2023-11-21T18:03:20;3.43;;;2.50;;
29500;SDS011;16450;50.288;10.966;2023-11-21T18:06:22;3.17;;;2.10;;
29500;SDS011;16450;50.288;10.966;2023-11-21T18:09:24;2.87;;;2.20;;
29500;SDS011;16450;50.288;10.966;2023-11-21T18:12:26;3.60;;;2.63;;
29500;SDS011;16450;50.288;10.966;2023-11-21T18:15:28;3.70;;;2.37;;
29500;SDS011;16450;50.288;10.966;2023-11-21T18:18:30;3.30;;;2.40;;